Time;durP1;ratioP1;P1;durP2;ratioP2;P2;SDS_P1;SDS_P2;PMS_P1;PMS_P2;Temp;Humidity;BMP_temperature;BMP_pressure;BME280_temperature;BME280_humidity;BME280_pressure;Samples;Min_cycle;Max_cycle;Signal;HPM_P1;HPM_P2
2023/10/27 00:00:15;;;;;;;4.97;1.63;;;12.50;31.50;;;;;;4968805;28;20462;-65
2023/10/27 00:02:42;;;;;;;6.90;1.30;;;12.60;31.50;;;;;;4970747;28;20870;-65
2023/10/27 00:05:10;;;;;;;3.80;1.10;;;12.50;31.40;;;;;;4969340;28;20486;-66
2023/10/27 00:07:36;;;;;;;4.20;1.20;;;12.50;31.50;;;;;;4969079;28;20483;-65
2023/10/27 00:10:04;;;;;;;5.00;1.40;;;12.40;31.40;;;;;;4972964;28;20461;-65
2023/10/27 00:12:30;;;;;;;5.37;1.30;;;12.40;31.40;;;;;;4972758;28;20469;-65
2023/10/27 00:14:57;;;;;;;5.33;1.00;;;12.40;31.50;;;;;;4972305;28;20481;-65
2023/10/27 00:17:24;;;;;;;5.50;1.17;;;12.40;31.40;;;;;;4974534;28;20457;-66
2023/10/27 00:19:50;;;;;;;5.50;1.00;;;12.30;31.40;;;;;;4973380;28;20478;-65
2023/10/27 00:22:18;;;;;;;5.30;1.40;;;12.30;31.30;;;;;;4972668;28;20461;-65
2023/10/27 00:24:45;;;;;;;6.93;2.13;;;12.30;31.30;;;;;;4973356;28;20490;-65
2023/10/27 00:27:12;;;;;;;5.53;1.87;;;12.30;31.40;;;;;;4973779;28;20458;-65
2023/10/27 00:29:38;;;;;;;6.83;2.00;;;12.30;31.50;;;;;;4977807;28;20485;-65
2023/10/27 00:32:05;;;;;;;5.40;1.93;;;12.30;31.60;;;;;;4974269;28;21276;-65
2023/10/27 00:34:32;;;;;;;4.90;1.90;;;12.30;31.60;;;;;;4971712;28;20494;-66
2023/10/27 00:36:59;;;;;;;5.73;2.10;;;12.20;31.70;;;;;;4970732;28;20461;-65
2023/10/27 00:39:27;;;;;;;6.80;1.80;;;12.20;31.70;;;;;;4971027;28;20469;-65
2023/10/27 00:41:54;;;;;;;7.13;1.90;;;12.20;31.70;;;;;;4969577;28;20470;-65
2023/10/27 00:44:20;;;;;;;8.70;2.00;;;12.20;31.80;;;;;;4973616;28;20505;-65
2023/10/27 00:46:47;;;;;;;11.23;3.83;;;12.20;31.80;;;;;;4968733;28;20470;-65
2023/10/27 00:49:14;;;;;;;5.13;2.07;;;12.20;31.80;;;;;;4970182;28;20848;-65
2023/10/27 00:51:41;;;;;;;7.77;2.23;;;12.20;31.80;;;;;;4984329;28;20465;-65
2023/10/27 00:54:09;;;;;;;6.57;2.07;;;12.10;31.80;;;;;;4973276;28;21039;-65
2023/10/27 00:56:37;;;;;;;5.70;2.23;;;12.10;31.90;;;;;;4975153;28;20550;-65
2023/10/27 00:59:04;;;;;;;5.97;2.43;;;12.20;31.90;;;;;;4975267;28;20465;-65
2023/10/27 01:01:31;;;;;;;6.77;2.23;;;12.10;32.00;;;;;;4969767;28;21009;-66
2023/10/27 01:03:58;;;;;;;6.93;2.03;;;12.10;32.00;;;;;;4971395;28;20477;-65
2023/10/27 01:06:25;;;;;;;10.00;2.40;;;12.10;32.10;;;;;;4970906;28;20504;-65
2023/10/27 01:08:51;;;;;;;5.83;2.23;;;12.10;32.10;;;;;;4970009;28;20958;-66
2023/10/27 01:11:19;;;;;;;7.23;2.17;;;12.10;32.10;;;;;;4969837;28;20457;-65
2023/10/27 01:13:50;;;;;;;6.73;2.10;;;12.10;32.10;;;;;;4972976;28;20460;-65
2023/10/27 01:16:17;;;;;;;6.30;2.50;;;12.10;32.20;;;;;;4969162;28;20461;-66
2023/10/27 01:18:44;;;;;;;5.90;2.13;;;12.10;32.20;;;;;;4970975;28;20473;-65
2023/10/27 01:21:10;;;;;;;5.53;2.40;;;12.10;32.30;;;;;;4972241;28;21103;-66
2023/10/27 01:23:38;;;;;;;6.13;2.43;;;12.10;32.30;;;;;;4968854;28;20472;-65
2023/10/27 01:26:05;;;;;;;7.80;2.73;;;12.10;32.30;;;;;;4969058;28;21013;-65
2023/10/27 01:28:32;;;;;;;7.10;2.60;;;12.10;32.40;;;;;;4976230;28;20457;-65
2023/10/27 01:30:59;;;;;;;8.40;3.10;;;12.10;32.40;;;;;;4971646;28;20505;-65
2023/10/27 01:33:26;;;;;;;6.67;2.60;;;12.10;32.40;;;;;;4971218;28;20465;-68
2023/10/27 01:35:55;;;;;;;8.20;2.30;;;12.10;32.40;;;;;;4975507;28;21012;-65
2023/10/27 01:38:22;;;;;;;5.60;2.70;;;12.10;32.40;;;;;;4969478;28;20477;-65
2023/10/27 01:40:50;;;;;;;7.50;2.83;;;12.10;32.50;;;;;;4969534;28;20453;-65
2023/10/27 01:43:17;;;;;;;6.03;2.73;;;12.00;32.60;;;;;;4973297;28;20464;-66
2023/10/27 01:45:43;;;;;;;7.17;3.10;;;12.10;32.60;;;;;;4976965;28;20492;-65
2023/10/27 01:48:10;;;;;;;7.17;3.00;;;12.00;32.60;;;;;;4975904;28;20473;-65
2023/10/27 01:50:37;;;;;;;5.73;2.97;;;12.00;32.60;;;;;;4974165;28;20454;-65
2023/10/27 01:53:03;;;;;;;6.53;3.27;;;12.00;32.70;;;;;;4971539;28;20459;-65
2023/10/27 01:55:30;;;;;;;5.80;2.80;;;12.10;32.70;;;;;;4973514;28;20470;-65
2023/10/27 01:57:58;;;;;;;6.30;3.00;;;12.10;32.70;;;;;;4972922;28;20466;-65
2023/10/27 02:00:25;;;;;;;5.80;3.00;;;12.10;32.70;;;;;;4971854;28;20469;-65
2023/10/27 02:02:52;;;;;;;8.03;3.63;;;12.00;32.70;;;;;;4976224;28;20856;-66
2023/10/27 02:05:18;;;;;;;6.60;3.00;;;12.00;32.80;;;;;;4975391;28;20489;-65
2023/10/27 02:07:45;;;;;;;9.00;2.90;;;12.00;32.80;;;;;;4973319;28;20469;-65
2023/10/27 02:10:12;;;;;;;6.37;3.47;;;12.00;32.80;;;;;;4968674;28;20461;-65
2023/10/27 02:12:38;;;;;;;7.53;3.60;;;12.00;32.90;;;;;;4969384;28;20462;-65
2023/10/27 02:15:09;;;;;;;10.77;4.40;;;12.10;33.00;;;;;;4971171;28;20496;-65
2023/10/27 02:17:37;;;;;;;7.27;3.40;;;12.10;33.00;;;;;;4972390;28;20539;-65
2023/10/27 02:20:05;;;;;;;6.80;3.33;;;12.10;32.90;;;;;;4972621;28;20504;-65
2023/10/27 02:22:32;;;;;;;5.60;2.57;;;12.10;32.80;;;;;;4970693;28;20469;-64
2023/10/27 02:24:58;;;;;;;6.63;3.10;;;12.10;32.80;;;;;;4971928;28;20477;-65
2023/10/27 02:27:25;;;;;;;7.93;3.27;;;12.10;32.80;;;;;;4970766;28;20473;-64
2023/10/27 02:29:52;;;;;;;6.40;3.20;;;12.10;32.60;;;;;;4971597;28;20873;-65
2023/10/27 02:32:20;;;;;;;9.17;3.90;;;12.00;32.40;;;;;;4971024;28;20473;-65
2023/10/27 02:34:47;;;;;;;9.10;4.00;;;12.00;32.50;;;;;;4971088;28;20494;-65
2023/10/27 02:37:13;;;;;;;5.70;3.70;;;12.00;32.60;;;;;;4971389;28;20469;-65
2023/10/27 02:39:40;;;;;;;7.40;4.13;;;12.00;32.60;;;;;;4969276;28;20966;-65
2023/10/27 02:42:08;;;;;;;8.50;4.53;;;12.00;32.70;;;;;;4971059;28;20458;-65
2023/10/27 02:44:35;;;;;;;7.90;4.17;;;12.00;32.80;;;;;;4974646;28;20499;-65
2023/10/27 02:47:01;;;;;;;7.37;5.00;;;12.00;32.70;;;;;;4971355;28;20482;-64
2023/10/27 02:49:29;;;;;;;7.30;4.20;;;12.00;32.70;;;;;;4979291;28;20468;-65
2023/10/27 02:51:56;;;;;;;7.37;4.07;;;12.00;32.80;;;;;;4971448;28;20474;-64
2023/10/27 02:54:23;;;;;;;8.10;4.20;;;12.00;32.90;;;;;;4972544;28;20509;-65
2023/10/27 02:56:49;;;;;;;7.43;3.80;;;12.00;32.90;;;;;;4972220;28;20457;-65
2023/10/27 02:59:16;;;;;;;6.97;3.50;;;12.00;33.00;;;;;;4966732;28;20473;-65
2023/10/27 03:01:44;;;;;;;6.47;3.50;;;12.00;32.80;;;;;;4969302;28;21023;-65
2023/10/27 03:04:12;;;;;;;5.97;3.40;;;12.00;32.80;;;;;;4969121;28;20576;-65
2023/10/27 03:06:41;;;;;;;6.43;3.63;;;12.00;32.80;;;;;;4969254;28;20522;-64
2023/10/27 03:09:08;;;;;;;10.40;4.43;;;11.90;32.90;;;;;;4972658;28;20545;-65
2023/10/27 03:11:35;;;;;;;6.60;3.77;;;11.90;33.10;;;;;;4972485;28;20465;-64
2023/10/27 03:14:01;;;;;;;8.53;3.70;;;11.90;33.10;;;;;;4971522;28;20469;-65
2023/10/27 03:16:28;;;;;;;6.23;3.63;;;12.00;33.00;;;;;;4971694;28;20489;-65
2023/10/27 03:18:55;;;;;;;5.83;3.10;;;12.00;33.00;;;;;;4972120;28;20472;-65
2023/10/27 03:21:22;;;;;;;5.53;3.53;;;12.00;32.80;;;;;;4969244;28;21108;-65
2023/10/27 03:23:52;;;;;;;6.70;3.83;;;11.90;32.90;;;;;;4964705;28;20462;-65
2023/10/27 03:26:19;;;;;;;6.93;3.97;;;11.90;33.00;;;;;;4970790;28;20874;-65
2023/10/27 03:28:46;;;;;;;8.70;3.90;;;11.90;33.00;;;;;;4975986;28;20469;-65
2023/10/27 03:31:13;;;;;;;5.83;3.53;;;11.90;33.00;;;;;;4970605;28;20474;-65
2023/10/27 03:33:40;;;;;;;7.40;3.60;;;12.00;33.10;;;;;;4976161;28;20514;-65
2023/10/27 03:36:07;;;;;;;7.77;4.40;;;12.00;33.10;;;;;;4974308;28;20477;-64
2023/10/27 03:38:34;;;;;;;6.13;3.33;;;12.00;32.90;;;;;;4970358;28;20465;-66
2023/10/27 03:41:02;;;;;;;5.10;2.90;;;11.90;33.10;;;;;;4976938;28;20890;-65
2023/10/27 03:43:29;;;;;;;6.60;3.37;;;11.90;33.10;;;;;;4978288;28;20461;-64
2023/10/27 03:45:55;;;;;;;7.23;4.27;;;11.90;33.20;;;;;;4971958;28;21168;-64
2023/10/27 03:48:22;;;;;;;6.80;3.30;;;11.90;33.40;;;;;;4979791;28;20470;-65
2023/10/27 03:50:49;;;;;;;6.30;3.33;;;11.90;33.40;;;;;;4972433;28;20213;-66
2023/10/27 03:53:16;;;;;;;5.27;2.73;;;11.80;33.40;;;;;;4970608;28;20469;-66
2023/10/27 03:55:42;;;;;;;6.70;3.20;;;11.90;33.50;;;;;;4969618;28;20517;-63
2023/10/27 03:58:17;;;;;;;6.80;2.53;;;11.90;33.30;;;;;;4969003;28;20488;-63
2023/10/27 04:00:44;;;;;;;5.57;2.37;;;11.90;33.50;;;;;;4967250;28;20838;-62
2023/10/27 04:03:11;;;;;;;7.53;2.40;;;11.80;33.30;;;;;;4971419;28;20461;-63
2023/10/27 04:05:38;;;;;;;5.70;2.37;;;11.80;33.20;;;;;;4970540;28;20477;-64
2023/10/27 04:08:05;;;;;;;7.57;2.20;;;11.90;33.00;;;;;;4971004;28;20889;-64
2023/10/27 04:10:33;;;;;;;5.00;2.90;;;11.90;32.80;;;;;;4966867;28;20469;-64
2023/10/27 04:13:01;;;;;;;6.33;2.40;;;11.90;33.10;;;;;;4971203;28;20505;-66
2023/10/27 04:15:29;;;;;;;6.33;2.40;;;11.90;32.90;;;;;;4966979;28;20493;-63
2023/10/27 04:17:56;;;;;;;5.40;1.90;;;11.80;33.00;;;;;;4986693;22;20470;-66
2023/10/27 04:20:23;;;;;;;6.70;2.60;;;11.80;33.00;;;;;;5024583;28;20467;-65
2023/10/27 04:22:50;;;;;;;4.37;1.77;;;11.80;33.00;;;;;;5010728;28;20504;-68
2023/10/27 04:25:17;;;;;;;4.30;1.87;;;11.80;33.00;;;;;;5025162;28;21029;-69
2023/10/27 04:27:43;;;;;;;4.20;1.73;;;11.80;33.40;;;;;;5026927;28;20482;-70
2023/10/27 04:30:11;;;;;;;5.17;1.80;;;11.70;33.40;;;;;;5017085;28;20459;-67
2023/10/27 04:32:40;;;;;;;5.30;2.10;;;11.70;33.60;;;;;;5022955;28;20545;-66
2023/10/27 04:35:07;;;;;;;5.53;1.90;;;11.70;33.60;;;;;;5023899;28;20501;-66
2023/10/27 04:37:34;;;;;;;4.00;1.60;;;11.70;33.70;;;;;;5027566;28;20465;-67
2023/10/27 04:40:01;;;;;;;5.00;1.73;;;11.70;33.90;;;;;;5027730;28;20454;-67
2023/10/27 04:42:28;;;;;;;5.07;1.60;;;11.70;34.10;;;;;;5024874;28;20473;-68
2023/10/27 04:44:55;;;;;;;5.80;1.70;;;11.60;34.20;;;;;;5026553;28;20474;-68
2023/10/27 04:47:21;;;;;;;4.70;1.67;;;11.70;34.20;;;;;;5024048;28;20474;-68
2023/10/27 04:49:53;;;;;;;6.07;1.90;;;11.60;34.20;;;;;;5022476;28;20463;-67
2023/10/27 04:52:20;;;;;;;4.30;2.00;;;11.60;34.30;;;;;;5016277;28;20528;-69
2023/10/27 04:54:47;;;;;;;5.43;1.90;;;11.60;34.30;;;;;;5023846;28;20489;-68
2023/10/27 04:57:13;;;;;;;6.10;2.30;;;11.60;34.30;;;;;;5026328;28;20829;-68
2023/10/27 04:59:40;;;;;;;4.77;1.63;;;11.60;34.30;;;;;;5026382;28;20450;-68
2023/10/27 05:02:07;;;;;;;6.00;2.20;;;11.60;34.40;;;;;;5025406;28;20705;-67
2023/10/27 05:04:33;;;;;;;4.80;2.27;;;11.60;34.40;;;;;;5022256;28;20578;-67
2023/10/27 05:07:03;;;;;;;6.10;1.83;;;11.70;34.30;;;;;;5025286;28;20478;-67
2023/10/27 05:09:30;;;;;;;4.97;1.73;;;11.70;34.30;;;;;;5021720;28;20455;-67
2023/10/27 05:11:57;;;;;;;4.70;1.30;;;11.70;34.10;;;;;;5026377;28;20497;-68
2023/10/27 05:14:23;;;;;;;4.00;1.27;;;11.80;33.80;;;;;;5019394;28;20487;-68
2023/10/27 05:16:50;;;;;;;3.70;1.07;;;11.80;33.70;;;;;;5026078;28;20455;-69
2023/10/27 05:19:17;;;;;;;3.90;1.03;;;11.80;33.40;;;;;;5027845;28;20478;-67
2023/10/27 05:21:44;;;;;;;3.67;1.10;;;11.80;33.60;;;;;;5027673;28;20999;-69
2023/10/27 05:24:12;;;;;;;3.67;1.10;;;11.80;33.60;;;;;;5026252;28;20486;-68
2023/10/27 05:26:38;;;;;;;7.70;1.03;;;11.70;33.60;;;;;;5025564;28;20506;-69
2023/10/27 05:29:05;;;;;;;4.23;1.10;;;11.70;33.70;;;;;;5027559;28;20463;-69
2023/10/27 05:31:32;;;;;;;4.43;0.80;;;11.70;33.70;;;;;;5024812;28;20500;-68
2023/10/27 05:34:00;;;;;;;3.10;0.73;;;11.80;34.10;;;;;;5023910;28;20543;-69
2023/10/27 05:36:26;;;;;;;3.80;0.90;;;11.70;33.60;;;;;;5022858;28;20916;-68
2023/10/27 05:38:53;;;;;;;7.10;0.80;;;11.80;33.60;;;;;;5027880;28;20470;-68
2023/10/27 05:41:21;;;;;;;3.27;0.70;;;11.70;33.80;;;;;;5025454;28;20466;-68
2023/10/27 05:43:50;;;;;;;4.93;1.03;;;11.80;33.80;;;;;;5023652;28;20477;-68
2023/10/27 05:46:18;;;;;;;6.00;1.10;;;11.80;33.70;;;;;;5026556;28;20479;-68
2023/10/27 05:48:45;;;;;;;4.23;1.10;;;11.80;33.70;;;;;;5026935;28;20922;-68
2023/10/27 05:51:11;;;;;;;4.33;1.27;;;11.80;33.80;;;;;;5025322;28;20458;-69
2023/10/27 05:53:38;;;;;;;5.33;1.40;;;11.80;33.50;;;;;;5024120;28;20463;-69
2023/10/27 05:56:05;;;;;;;4.30;1.23;;;11.80;33.70;;;;;;5027218;28;21044;-68
2023/10/27 05:58:34;;;;;;;6.30;1.50;;;11.80;33.80;;;;;;5023829;28;20462;-67
2023/10/27 06:01:01;;;;;;;5.03;1.60;;;11.80;33.80;;;;;;5027011;28;20505;-68
2023/10/27 06:03:28;;;;;;;4.47;1.80;;;11.80;33.60;;;;;;5028239;28;20466;-67
2023/10/27 06:05:55;;;;;;;6.40;1.60;;;11.90;33.50;;;;;;5023348;28;20485;-67
2023/10/27 06:08:22;;;;;;;3.80;1.33;;;11.80;33.40;;;;;;5024232;28;20485;-68
2023/10/27 06:10:48;;;;;;;4.67;1.50;;;11.80;33.80;;;;;;5025245;28;20486;-69
2023/10/27 06:13:15;;;;;;;4.70;1.90;;;11.80;33.90;;;;;;5028246;28;20473;-69
2023/10/27 06:15:43;;;;;;;4.80;1.70;;;11.80;34.10;;;;;;5025048;28;20492;-68
2023/10/27 06:18:10;;;;;;;4.83;1.80;;;11.80;34.00;;;;;;5022823;28;20487;-67
2023/10/27 06:20:36;;;;;;;5.93;2.37;;;11.80;34.00;;;;;;5029505;28;20509;-70
2023/10/27 06:23:03;;;;;;;4.40;1.90;;;11.80;34.20;;;;;;5024526;28;20466;-69
2023/10/27 06:25:30;;;;;;;5.47;2.53;;;11.80;34.30;;;;;;5028364;28;20854;-69
2023/10/27 06:27:56;;;;;;;5.57;1.90;;;11.80;34.10;;;;;;5024386;28;20479;-71
2023/10/27 06:30:23;;;;;;;5.43;2.33;;;11.80;34.30;;;;;;5023139;28;20474;-71
2023/10/27 06:32:52;;;;;;;4.40;2.30;;;11.80;34.50;;;;;;5025350;28;20785;-70
2023/10/27 06:35:18;;;;;;;9.23;2.87;;;11.80;34.50;;;;;;5023105;28;20490;-70
2023/10/27 06:37:45;;;;;;;5.57;2.97;;;11.80;34.90;;;;;;5029552;28;20834;-70
2023/10/27 06:40:12;;;;;;;5.80;2.47;;;11.80;35.00;;;;;;5028209;28;20466;-70
2023/10/27 06:42:39;;;;;;;7.23;2.80;;;11.80;35.10;;;;;;5021954;28;20482;-69
2023/10/27 06:45:08;;;;;;;5.57;3.13;;;11.80;35.10;;;;;;5023590;28;20494;-70
2023/10/27 06:47:35;;;;;;;5.03;2.80;;;11.80;35.50;;;;;;5027958;28;20582;-70
2023/10/27 06:50:04;;;;;;;5.63;2.53;;;11.80;35.50;;;;;;5023517;28;20507;-70
2023/10/27 06:52:31;;;;;;;4.83;2.40;;;11.80;35.70;;;;;;5026679;28;20462;-70
2023/10/27 06:54:57;;;;;;;5.90;2.43;;;11.80;35.80;;;;;;5026838;28;20483;-70
2023/10/27 06:57:24;;;;;;;5.37;2.20;;;11.90;35.70;;;;;;5028390;28;20504;-70
2023/10/27 06:59:51;;;;;;;6.67;2.10;;;11.90;35.70;;;;;;5024493;28;20471;-69
2023/10/27 07:02:18;;;;;;;4.50;2.07;;;11.90;35.60;;;;;;5027760;28;20554;-69
2023/10/27 07:04:44;;;;;;;6.07;2.30;;;11.90;35.70;;;;;;5023891;28;20498;-69
2023/10/27 07:07:12;;;;;;;4.60;1.97;;;12.00;35.70;;;;;;5027230;28;20980;-69
2023/10/27 07:09:39;;;;;;;6.00;1.80;;;12.00;35.70;;;;;;5024444;28;20459;-69
2023/10/27 07:12:08;;;;;;;4.73;2.03;;;12.00;35.90;;;;;;5034859;28;20463;-69
2023/10/27 07:14:34;;;;;;;7.30;1.97;;;12.10;35.90;;;;;;5033373;28;20493;-69
2023/10/27 07:17:01;;;;;;;4.30;1.60;;;12.10;35.90;;;;;;5026743;28;20466;-70
2023/10/27 07:19:28;;;;;;;3.73;1.50;;;12.20;36.00;;;;;;5027134;28;20470;-69
2023/10/27 07:21:54;;;;;;;4.10;1.70;;;12.30;35.80;;;;;;5019543;28;20470;-69
2023/10/27 07:24:23;;;;;;;9.00;1.87;;;12.30;35.90;;;;;;5023313;28;20486;-70
2023/10/27 07:26:50;;;;;;;4.70;1.83;;;12.30;35.90;;;;;;5026169;28;20570;-70
2023/10/27 07:29:18;;;;;;;3.80;1.20;;;12.50;35.90;;;;;;5027897;28;20463;-69
2023/10/27 07:31:44;;;;;;;3.70;1.10;;;12.80;35.50;;;;;;5023725;28;20494;-69
2023/10/27 07:34:11;;;;;;;5.33;1.60;;;13.40;35.70;;;;;;5024204;28;20482;-69
2023/10/27 07:36:38;;;;;;;3.77;1.13;;;14.10;34.40;;;;;;5025250;28;21067;-70
2023/10/27 07:39:05;;;;;;;3.70;1.07;;;14.40;31.30;;;;;;5026707;28;20534;-67
2023/10/27 07:41:34;;;;;;;3.70;1.00;;;14.50;29.50;;;;;;5028602;28;20463;-68
2023/10/27 07:44:02;;;;;;;3.27;0.70;;;14.50;28.70;;;;;;5022748;28;20463;-68
2023/10/27 07:46:29;;;;;;;4.50;0.80;;;14.40;28.40;;;;;;5025381;28;20859;-68
2023/10/27 07:48:56;;;;;;;4.83;1.10;;;14.40;28.60;;;;;;5024098;28;20485;-68
2023/10/27 07:51:23;;;;;;;4.23;0.97;;;14.40;28.50;;;;;;5025217;28;20459;-68
2023/10/27 07:53:50;;;;;;;4.20;0.77;;;14.60;28.30;;;;;;5024512;28;21338;-67
2023/10/27 07:56:18;;;;;;;3.97;1.30;;;14.80;27.20;;;;;;5024937;28;20474;-67
2023/10/27 07:58:46;;;;;;;3.63;0.97;;;14.80;27.20;;;;;;5025373;28;21376;-67
2023/10/27 08:01:12;;;;;;;4.53;0.83;;;14.90;26.80;;;;;;5027527;28;20473;-67
2023/10/27 08:03:39;;;;;;;4.50;1.00;;;15.00;25.70;;;;;;5025645;28;20968;-68
2023/10/27 08:06:07;;;;;;;3.10;0.60;;;14.90;25.60;;;;;;5027450;28;20478;-67
2023/10/27 08:08:34;;;;;;;4.00;1.43;;;14.80;25.80;;;;;;5023386;28;20613;-68
2023/10/27 08:11:01;;;;;;;3.30;0.80;;;14.70;25.90;;;;;;5026198;28;20490;-67
2023/10/27 08:13:28;;;;;;;3.00;0.60;;;14.60;25.60;;;;;;5023852;28;21122;-67
2023/10/27 08:15:56;;;;;;;3.53;0.80;;;14.60;25.70;;;;;;5022702;28;20475;-67
2023/10/27 08:18:23;;;;;;;3.57;0.90;;;14.50;26.00;;;;;;5022881;28;20488;-68
2023/10/27 08:20:50;;;;;;;3.40;0.83;;;14.50;25.80;;;;;;5027287;28;20458;-67
2023/10/27 08:23:17;;;;;;;4.47;0.77;;;14.40;25.80;;;;;;5024266;28;20462;-67
2023/10/27 08:25:50;;;;;;;3.17;0.60;;;14.40;25.60;;;;;;5023272;28;20479;-67
2023/10/27 08:28:17;;;;;;;3.97;0.50;;;14.30;25.40;;;;;;5027490;28;20840;-67
2023/10/27 08:30:43;;;;;;;2.93;0.50;;;14.30;25.10;;;;;;5025177;28;20475;-67
2023/10/27 08:33:12;;;;;;;3.20;0.53;;;14.20;24.90;;;;;;5023974;28;20486;-67
2023/10/27 08:35:39;;;;;;;3.30;0.63;;;14.20;25.10;;;;;;5026646;28;20533;-67
2023/10/27 08:38:05;;;;;;;3.00;0.50;;;14.20;25.30;;;;;;5025558;28;20474;-67
2023/10/27 08:40:33;;;;;;;2.90;0.50;;;14.30;25.50;;;;;;5023852;28;21187;-67
2023/10/27 08:43:00;;;;;;;3.50;0.60;;;14.30;25.60;;;;;;5023631;28;20463;-67
2023/10/27 08:45:28;;;;;;;4.90;0.63;;;14.30;25.60;;;;;;5026093;28;20471;-67
2023/10/27 08:47:54;;;;;;;2.80;0.50;;;14.30;25.20;;;;;;5025750;28;21074;-67
2023/10/27 08:50:23;;;;;;;3.20;0.70;;;14.20;25.50;;;;;;5026719;28;20798;-68
2023/10/27 08:52:50;;;;;;;2.80;0.47;;;14.20;25.50;;;;;;5025857;28;20804;-67
2023/10/27 08:55:17;;;;;;;5.60;2.83;;;14.30;25.60;;;;;;5022979;28;20516;-67
2023/10/27 08:57:44;;;;;;;11.07;6.60;;;14.20;25.70;;;;;;5024341;28;21121;-68
2023/10/27 09:00:12;;;;;;;29.93;20.53;;;14.20;25.50;;;;;;5024471;28;20471;-69
2023/10/27 09:02:38;;;;;;;5.30;2.33;;;14.10;25.70;;;;;;5022430;28;20822;-68
2023/10/27 09:05:09;;;;;;;2.90;0.60;;;14.10;25.70;;;;;;5026031;28;20483;-69
2023/10/27 09:07:37;;;;;;;3.30;0.87;;;14.00;25.90;;;;;;5022453;28;20480;-68
2023/10/27 09:10:07;;;;;;;3.17;0.60;;;13.90;26.40;;;;;;5024752;28;20471;-67
2023/10/27 09:12:36;;;;;;;3.27;0.60;;;13.80;26.80;;;;;;5023832;28;20467;-67
2023/10/27 09:15:05;;;;;;;3.57;0.87;;;13.80;27.10;;;;;;5021546;28;20501;-69
2023/10/27 09:17:32;;;;;;;3.23;0.60;;;14.10;27.40;;;;;;5022755;28;20454;-69
2023/10/27 09:20:06;;;;;;;3.10;0.80;;;14.30;26.80;;;;;;5021315;28;20463;-68
2023/10/27 09:22:33;;;;;;;3.73;0.60;;;14.50;26.50;;;;;;5024902;28;20962;-67
2023/10/27 09:25:17;;;;;;;3.57;0.70;;;14.60;25.70;;;;;;5024048;28;20487;-68
2023/10/27 09:27:45;;;;;;;2.93;0.47;;;14.70;24.00;;;;;;5024439;28;20482;-68
2023/10/27 09:30:13;;;;;;;3.40;0.60;;;14.80;23.00;;;;;;5020819;28;20459;-68
2023/10/27 09:32:42;;;;;;;3.97;0.60;;;16.50;20.60;;;;;;5022828;28;20486;-69
2023/10/27 09:35:10;;;;;;;3.27;0.50;;;17.60;16.20;;;;;;5024431;28;20514;-69
2023/10/27 09:37:38;;;;;;;3.73;0.63;;;17.70;15.20;;;;;;5026345;28;20552;-69
2023/10/27 09:40:08;;;;;;;3.83;0.80;;;17.60;14.80;;;;;;5024505;28;20494;-68
2023/10/27 09:42:38;;;;;;;5.80;0.93;;;17.30;14.20;;;;;;5024998;28;20466;-69
2023/10/27 09:45:08;;;;;;;5.40;0.70;;;16.90;14.40;;;;;;5024226;28;20913;-68
2023/10/27 09:47:39;;;;;;;5.10;0.90;;;16.70;15.10;;;;;;5023511;28;20482;-71
2023/10/27 09:50:07;;;;;;;4.97;0.90;;;16.50;15.50;;;;;;5025303;28;21013;-68
2023/10/27 09:52:35;;;;;;;6.00;0.57;;;16.70;15.50;;;;;;5022262;28;20462;-68
2023/10/27 09:55:02;;;;;;;3.53;0.70;;;16.90;15.50;;;;;;5020671;28;20490;-68
2023/10/27 09:57:29;;;;;;;3.20;0.70;;;18.90;13.40;;;;;;5025928;28;20490;-68
2023/10/27 09:59:59;;;;;;;4.17;0.70;;;21.50;6.60;;;;;;5022285;28;20494;-74
2023/10/27 10:02:28;;;;;;;3.00;0.60;;;23.00;2.20;;;;;;5023576;28;20514;-74
2023/10/27 10:05:00;;;;;;;4.70;0.60;;;23.50;1.00;;;;;;5026080;28;20474;-74
2023/10/27 10:07:32;;;;;;;3.60;0.90;;;24.60;1.00;;;;;;5026016;28;20469;-74
2023/10/27 10:09:59;;;;;;;3.73;0.70;;;25.60;1.00;;;;;;5028223;28;20466;-73
2023/10/27 10:12:25;;;;;;;3.40;0.70;;;25.40;1.00;;;;;;5026953;28;20462;-72
2023/10/27 10:14:53;;;;;;;4.10;0.47;;;25.20;1.00;;;;;;5035876;28;20806;-72
2023/10/27 10:17:40;;;;;;;4.43;0.80;;;25.90;1.00;;;;;;5040870;28;20466;-73
2023/10/27 10:20:09;;;;;;;4.30;1.10;;;26.50;1.00;;;;;;5044005;28;20463;-72
2023/10/27 10:22:55;;;;;;;3.50;0.63;;;26.90;1.00;;;;;;5034780;28;20463;-73
2023/10/27 10:25:31;;;;;;;4.30;0.90;;;27.10;1.00;;;;;;5027666;28;20481;-73
2023/10/27 10:28:22;;;;;;;3.63;0.93;;;27.10;1.00;;;;;;5024935;28;20994;-73
2023/10/27 10:31:10;;;;;;;3.50;0.60;;;26.90;1.00;;;;;;5021049;28;20558;-73
2023/10/27 10:33:38;;;;;;;3.40;0.63;;;26.70;1.00;;;;;;5027265;28;20517;-73
2023/10/27 10:36:25;;;;;;;5.20;1.00;;;26.50;1.00;;;;;;5024678;28;20481;-73
2023/10/27 10:38:59;;;;;;;5.17;0.63;;;26.20;1.00;;;;;;5024942;28;20459;-73
2023/10/27 10:42:00;;;;;;;3.73;0.60;;;26.00;1.00;;;;;;5023850;28;20471;-72
2023/10/27 10:44:29;;;;;;;5.23;0.90;;;25.80;1.00;;;;;;5025020;28;20998;-73
2023/10/27 10:46:56;;;;;;;4.20;0.90;;;25.50;1.00;;;;;;5028515;28;20513;-73
2023/10/27 10:49:25;;;;;;;3.83;0.90;;;25.10;1.00;;;;;;5025548;28;20849;-73
2023/10/27 10:51:53;;;;;;;7.70;1.43;;;24.20;1.00;;;;;;5026266;28;20876;-73
2023/10/27 10:54:20;;;;;;;5.50;0.70;;;23.60;1.00;;;;;;5027240;28;20576;-73
2023/10/27 10:56:47;;;;;;;4.63;0.90;;;23.30;1.00;;;;;;5029267;28;20513;-72
2023/10/27 10:59:20;;;;;;;4.73;0.80;;;23.10;1.00;;;;;;5027762;28;20550;-73
2023/10/27 11:01:54;;;;;;;5.00;0.93;;;22.70;1.00;;;;;;5025652;28;20995;-73
2023/10/27 11:04:30;;;;;;;4.80;0.90;;;22.40;1.00;;;;;;5023505;28;20996;-73
2023/10/27 11:07:02;;;;;;;7.47;1.10;;;22.30;1.00;;;;;;5026345;28;20481;-73
2023/10/27 11:09:31;;;;;;;3.30;0.60;;;22.20;1.00;;;;;;5023564;28;20502;-73
2023/10/27 11:11:58;;;;;;;6.13;0.80;;;22.10;1.00;;;;;;5022041;28;20525;-72
2023/10/27 11:14:24;;;;;;;6.27;1.00;;;22.10;1.00;;;;;;5021955;28;20486;-73
2023/10/27 11:17:02;;;;;;;4.43;0.90;;;22.00;1.00;;;;;;5023048;28;20919;-73
2023/10/27 11:19:30;;;;;;;4.80;1.00;;;22.00;1.00;;;;;;5022393;28;20467;-73
2023/10/27 11:21:57;;;;;;;5.20;0.90;;;21.90;1.00;;;;;;5026042;28;20482;-73
2023/10/27 11:24:24;;;;;;;4.20;0.90;;;21.90;1.00;;;;;;5025275;28;20491;-73
2023/10/27 11:26:51;;;;;;;6.10;1.03;;;21.90;1.00;;;;;;5021973;28;20486;-73
2023/10/27 11:29:18;;;;;;;6.73;1.10;;;21.80;1.00;;;;;;5020466;28;20862;-73
2023/10/27 11:31:47;;;;;;;5.10;1.17;;;21.70;1.00;;;;;;5027061;28;20475;-73
2023/10/27 11:34:16;;;;;;;5.27;1.30;;;21.60;1.00;;;;;;5025026;28;21045;-72
2023/10/27 11:37:00;;;;;;;4.90;0.83;;;21.50;1.00;;;;;;5026109;28;20554;-72
2023/10/27 11:39:27;;;;;;;4.17;0.70;;;21.50;1.00;;;;;;5021054;28;20459;-73
2023/10/27 11:41:55;;;;;;;5.23;1.23;;;21.30;1.00;;;;;;5022577;28;20482;-73
2023/10/27 11:44:23;;;;;;;7.70;1.40;;;21.10;1.00;;;;;;5022838;28;20483;-73
2023/10/27 11:46:51;;;;;;;3.90;0.80;;;21.40;1.00;;;;;;5026851;28;20459;-73
2023/10/27 11:49:18;;;;;;;4.90;0.70;;;21.40;1.00;;;;;;5025597;28;20482;-73
2023/10/27 11:51:47;;;;;;;4.70;0.77;;;21.60;1.00;;;;;;5024042;28;20938;-72
2023/10/27 11:54:15;;;;;;;5.00;0.93;;;21.60;1.00;;;;;;5021383;28;20482;-73
2023/10/27 11:56:42;;;;;;;4.70;0.80;;;21.20;1.00;;;;;;5025718;28;20465;-73
2023/10/27 11:59:10;;;;;;;5.10;0.60;;;21.00;1.00;;;;;;5020393;28;20463;-72
2023/10/27 12:01:37;;;;;;;3.60;0.60;;;21.10;1.00;;;;;;5021172;28;20493;-72
2023/10/27 12:04:05;;;;;;;3.30;0.70;;;21.30;1.00;;;;;;5022095;28;20471;-72
2023/10/27 12:06:32;;;;;;;3.40;0.70;;;21.30;1.00;;;;;;5022277;28;21011;-72
2023/10/27 12:09:00;;;;;;;3.20;0.80;;;21.00;1.00;;;;;;5023039;28;20484;-73
2023/10/27 12:11:27;;;;;;;4.90;0.57;;;20.90;1.00;;;;;;5021718;28;20620;-72
2023/10/27 12:13:56;;;;;;;3.00;0.70;;;20.70;1.00;;;;;;5025713;28;20462;-72
2023/10/27 12:16:22;;;;;;;3.83;0.63;;;20.40;1.00;;;;;;5022152;28;20459;-71
2023/10/27 12:18:49;;;;;;;3.20;0.70;;;20.50;1.30;;;;;;5021204;28;20467;-70
2023/10/27 12:21:16;;;;;;;7.03;2.23;;;20.50;1.00;;;;;;5022265;28;20455;-70
2023/10/27 12:23:43;;;;;;;6.50;2.00;;;20.50;1.00;;;;;;5024826;28;20475;-71
2023/10/27 12:26:12;;;;;;;5.43;1.00;;;20.40;1.00;;;;;;5022317;28;20489;-70
2023/10/27 12:28:39;;;;;;;5.73;1.27;;;20.20;1.00;;;;;;5026305;28;20493;-70
2023/10/27 12:31:06;;;;;;;4.50;0.63;;;20.00;1.80;;;;;;5018953;28;20542;-70
2023/10/27 12:33:33;;;;;;;4.60;1.30;;;19.80;2.00;;;;;;5023977;28;20558;-71
2023/10/27 12:36:06;;;;;;;4.13;0.60;;;19.80;2.70;;;;;;5025474;28;20482;-70
2023/10/27 12:38:34;;;;;;;3.10;0.60;;;20.00;2.70;;;;;;5025880;28;20463;-70
2023/10/27 12:41:01;;;;;;;3.20;0.60;;;20.10;3.00;;;;;;5020433;28;20826;-70
2023/10/27 12:43:30;;;;;;;3.57;0.70;;;20.20;2.50;;;;;;5019925;28;20467;-70
2023/10/27 12:45:57;;;;;;;2.97;0.67;;;20.10;2.30;;;;;;5022858;28;20570;-70
2023/10/27 12:48:24;;;;;;;3.47;0.53;;;19.60;2.70;;;;;;5025359;28;20980;-71
2023/10/27 12:50:50;;;;;;;6.03;1.00;;;19.20;3.00;;;;;;5024535;28;20474;-71